Time;durP1;ratioP1;P1;durP2;ratioP2;P2;SDS_P1;SDS_P2;PMS_P1;PMS_P2;Temp;Humidity;BMP_temperature;BMP_pressure;BME280_temperature;BME280_humidity;BME280_pressure;Samples;Min_cycle;Max_cycle;Signal;HPM_P1;HPM_P2
2023/10/28 00:00:29;;;;;;;;;;;10.10;99.90;;;;;;5040285;28;19921;-80
2023/10/28 00:02:55;;;;;;;;;;;10.10;99.90;;;;;;5052140;28;19921;-80
2023/10/28 00:05:20;;;;;;;;;;;10.00;99.90;;;;;;5044527;28;20030;-80
2023/10/28 00:07:46;;;;;;;;;;;10.00;99.90;;;;;;5028882;28;19920;-81
2023/10/28 00:10:13;;;;;;;;;;;10.00;99.90;;;;;;5045661;28;20333;-80
2023/10/28 00:12:39;;;;;;;;;;;9.90;99.90;;;;;;5028792;28;20404;-81
2023/10/28 00:15:05;;;;;;;;;;;9.90;99.90;;;;;;5038930;28;19921;-81
2023/10/28 00:17:30;;;;;;;;;;;9.90;99.90;;;;;;5032102;28;19928;-80
2023/10/28 00:19:56;;;;;;;;;;;9.90;99.90;;;;;;5046243;28;20320;-80
2023/10/28 00:22:22;;;;;;;;;;;9.90;99.90;;;;;;5045590;28;19990;-80
2023/10/28 00:24:47;;;;;;;;;;;9.80;99.90;;;;;;5019810;28;19921;-80
2023/10/28 00:27:14;;;;;;;;;;;9.80;99.90;;;;;;5031715;28;19921;-81
2023/10/28 00:29:40;;;;;;;;;;;9.80;99.90;;;;;;5047905;28;19948;-80
2023/10/28 00:32:06;;;;;;;;;;;9.70;99.90;;;;;;5038728;28;20130;-80
2023/10/28 00:34:32;;;;;;;;;;;9.70;99.90;;;;;;5038242;28;19924;-80
2023/10/28 00:36:58;;;;;;;;;;;9.70;99.90;;;;;;5036113;28;19927;-80
2023/10/28 00:39:24;;;;;;;;;;;9.70;99.90;;;;;;5036312;28;19964;-80
2023/10/28 00:41:49;;;;;;;;;;;9.60;99.90;;;;;;5032543;28;20008;-80
2023/10/28 00:44:15;;;;;;;;;;;9.60;99.90;;;;;;5050290;28;19968;-80
2023/10/28 00:46:44;;;;;;;;;;;9.60;99.90;;;;;;5020175;28;19925;-80
2023/10/28 00:49:09;;;;;;;;;;;9.60;99.90;;;;;;5035347;28;19928;-80
2023/10/28 00:51:35;;;;;;;;;;;9.50;99.90;;;;;;5018424;28;19921;-81
2023/10/28 00:54:01;;;;;;;;;;;9.50;99.90;;;;;;5028192;28;20063;-80
2023/10/28 00:56:28;;;;;;;;;;;9.40;99.90;;;;;;5019489;28;19921;-81
2023/10/28 00:58:53;;;;;;;;;;;9.50;99.90;;;;;;5034467;28;19920;-81
2023/10/28 01:01:19;;;;;;;;;;;9.40;99.90;;;;;;5054657;28;19986;-81
2023/10/28 01:03:45;;;;;;;;;;;9.30;99.90;;;;;;5025631;28;19920;-81
2023/10/28 01:06:12;;;;;;;;;;;9.30;99.90;;;;;;5034330;28;19936;-81
2023/10/28 01:08:38;;;;;;;;;;;9.30;99.90;;;;;;5035450;28;19963;-81
2023/10/28 01:11:04;;;;;;;;;;;9.30;99.90;;;;;;5035937;28;19928;-81
2023/10/28 01:13:30;;;;;;;;;;;9.20;99.90;;;;;;5043392;28;19924;-81
2023/10/28 01:15:55;;;;;;;;;;;9.30;99.90;;;;;;5015715;28;20342;-81
2023/10/28 01:18:21;;;;;;;;;;;9.20;99.90;;;;;;5052304;28;20344;-81
2023/10/28 01:20:47;;;;;;;;;;;9.20;99.90;;;;;;5049638;28;20308;-82
2023/10/28 01:23:12;;;;;;;;;;;9.20;99.90;;;;;;5041739;28;19925;-82
2023/10/28 01:25:38;;;;;;;;;;;9.10;99.90;;;;;;5038079;28;20006;-81
2023/10/28 01:28:03;;;;;;;;;;;9.10;99.90;;;;;;5017266;28;19968;-82
2023/10/28 01:30:29;;;;;;;;;;;9.10;99.90;;;;;;5033621;28;19925;-82
2023/10/28 01:32:54;;;;;;;;;;;9.10;99.90;;;;;;5021153;28;19951;-82
2023/10/28 01:35:20;;;;;;;;;;;8.90;99.90;;;;;;5030834;28;19956;-81
2023/10/28 01:37:45;;;;;;;;;;;9.00;99.90;;;;;;5019445;28;20067;-82
2023/10/28 01:40:14;;;;;;;;;;;9.00;99.90;;;;;;5041769;28;19925;-81
2023/10/28 01:42:40;;;;;;;;;;;8.90;99.90;;;;;;5031589;28;19960;-81
2023/10/28 01:45:07;;;;;;;;;;;8.90;99.90;;;;;;5042034;28;20308;-81
2023/10/28 01:47:33;;;;;;;;;;;9.00;99.90;;;;;;5034331;28;20007;-82
2023/10/28 01:49:59;;;;;;;;;;;8.80;99.90;;;;;;5030658;28;19928;-82
2023/10/28 01:52:24;;;;;;;;;;;9.00;99.90;;;;;;5019956;28;19929;-81
2023/10/28 01:54:51;;;;;;;;;;;8.90;99.90;;;;;;5023745;28;19921;-81
2023/10/28 01:57:17;;;;;;;;;;;8.90;99.90;;;;;;5040413;28;19943;-80
2023/10/28 01:59:44;;;;;;;;;;;9.10;99.90;;;;;;5035462;28;20380;-80
2023/10/28 02:02:10;;;;;;;;;;;8.80;99.90;;;;;;5041963;28;21357;-81
2023/10/28 02:04:35;;;;;;;;;;;8.90;99.90;;;;;;5027859;28;19921;-81
2023/10/28 02:07:01;;;;;;;;;;;8.90;99.90;;;;;;5028554;28;20397;-81
2023/10/28 02:09:28;;;;;;;;;;;8.80;99.90;;;;;;5042883;28;20361;-82
2023/10/28 02:11:54;;;;;;;;;;;9.10;99.90;;;;;;5037661;28;19929;-81
2023/10/28 02:14:20;;;;;;;;;;;8.80;99.90;;;;;;5032254;28;19928;-81
2023/10/28 02:16:45;;;;;;;;;;;8.90;99.90;;;;;;5038081;28;20068;-81
2023/10/28 02:19:11;;;;;;;;;;;8.80;99.90;;;;;;5035684;28;19925;-81
2023/10/28 02:21:36;;;;;;;;;;;8.70;99.90;;;;;;5035540;28;20384;-82
2023/10/28 02:24:05;;;;;;;;;;;8.90;99.90;;;;;;5024593;28;19961;-82
2023/10/28 02:26:30;;;;;;;;;;;8.80;99.90;;;;;;5028171;28;19925;-81
2023/10/28 02:28:56;;;;;;;;;;;8.90;99.90;;;;;;5039131;28;20297;-80
2023/10/28 02:31:22;;;;;;;;;;;8.90;99.90;;;;;;5027365;28;19925;-81
2023/10/28 02:33:47;;;;;;;;;;;9.00;99.90;;;;;;5041714;28;19960;-81
2023/10/28 02:36:13;;;;;;;;;;;9.00;99.90;;;;;;5030173;28;19928;-81
2023/10/28 02:38:40;;;;;;;;;;;9.00;99.90;;;;;;5028692;28;19979;-81
2023/10/28 02:41:06;;;;;;;;;;;9.00;99.90;;;;;;5021518;28;19920;-81
2023/10/28 02:43:35;;;;;;;;;;;9.10;99.90;;;;;;5052341;28;19929;-82
2023/10/28 02:46:01;;;;;;;;;;;9.10;99.90;;;;;;5006754;28;19928;-81
2023/10/28 02:48:27;;;;;;;;;;;9.20;99.90;;;;;;5051478;28;19927;-81
2023/10/28 02:50:53;;;;;;;;;;;9.20;99.90;;;;;;5024996;28;19925;-81
2023/10/28 02:53:19;;;;;;;;;;;9.20;99.90;;;;;;5013514;28;19924;-81
2023/10/28 02:55:44;;;;;;;;;;;9.30;99.90;;;;;;5024891;28;19920;-81
2023/10/28 02:58:10;;;;;;;;;;;9.30;99.90;;;;;;5033311;28;19920;-81
2023/10/28 03:00:35;;;;;;;;;;;9.30;99.90;;;;;;5029792;28;19921;-81
2023/10/28 03:03:02;;;;;;;;;;;9.30;99.90;;;;;;5043909;28;19925;-80
2023/10/28 03:05:29;;;;;;;;;;;9.40;99.90;;;;;;5040442;28;19925;-80
2023/10/28 03:07:55;;;;;;;;;;;9.40;99.90;;;;;;5039481;28;19972;-80
2023/10/28 03:10:20;;;;;;;;;;;9.40;99.90;;;;;;5020586;28;19921;-79
2023/10/28 03:12:46;;;;;;;;;;;9.40;99.90;;;;;;5029888;28;19947;-80
2023/10/28 03:15:12;;;;;;;;;;;9.50;99.90;;;;;;5031106;28;19929;-79
2023/10/28 03:17:38;;;;;;;;;;;9.50;99.90;;;;;;5026870;28;19987;-79
2023/10/28 03:20:05;;;;;;;;;;;9.50;99.90;;;;;;5027797;28;20405;-79
2023/10/28 03:22:30;;;;;;;;;;;9.60;99.90;;;;;;5037426;28;19921;-79
2023/10/28 03:24:56;;;;;;;;;;;9.50;99.90;;;;;;5022499;28;20657;-79
2023/10/28 03:27:22;;;;;;;;;;;9.60;99.90;;;;;;5029075;28;19952;-79
2023/10/28 03:29:49;;;;;;;;;;;9.60;99.90;;;;;;5028839;28;19921;-80
2023/10/28 03:32:15;;;;;;;;;;;9.60;99.90;;;;;;5042689;28;19959;-80
2023/10/28 03:34:40;;;;;;;;;;;9.60;99.90;;;;;;5025243;28;19925;-80
2023/10/28 03:37:06;;;;;;;;;;;9.60;99.90;;;;;;5025742;28;19924;-81
2023/10/28 03:39:31;;;;;;;;;;;9.50;99.90;;;;;;5039687;28;19949;-81
2023/10/28 03:41:57;;;;;;;;;;;9.60;99.90;;;;;;5026089;28;19923;-80
2023/10/28 03:44:22;;;;;;;;;;;9.60;99.90;;;;;;5023075;28;19921;-81
2023/10/28 03:46:48;;;;;;;;;;;9.60;99.90;;;;;;5025405;28;19936;-80
2023/10/28 03:49:14;;;;;;;;;;;9.60;99.90;;;;;;5045579;28;19944;-80
2023/10/28 03:51:40;;;;;;;;;;;9.60;99.90;;;;;;5037721;28;19975;-80
2023/10/28 03:54:06;;;;;;;;;;;9.60;99.90;;;;;;5043120;28;20015;-80
2023/10/28 03:56:31;;;;;;;;;;;9.60;99.90;;;;;;5035747;28;20339;-80
2023/10/28 03:58:57;;;;;;;;;;;9.60;99.90;;;;;;5026828;28;19921;-80
2023/10/28 04:01:23;;;;;;;;;;;9.50;99.90;;;;;;5036926;28;19921;-80
2023/10/28 04:03:49;;;;;;;;;;;9.60;99.90;;;;;;5038554;28;19964;-81
2023/10/28 04:06:14;;;;;;;;;;;9.60;99.90;;;;;;5041014;28;19921;-81
2023/10/28 04:08:40;;;;;;;;;;;9.70;99.90;;;;;;5019824;28;19928;-81
2023/10/28 04:11:06;;;;;;;;;;;9.70;99.90;;;;;;5024616;28;19928;-81
2023/10/28 04:13:32;;;;;;;;;;;9.70;99.90;;;;;;5038798;28;19928;-82
2023/10/28 04:15:57;;;;;;;;;;;9.70;99.90;;;;;;5035728;28;20018;-81
2023/10/28 04:18:23;;;;;;;;;;;9.70;99.90;;;;;;5022353;28;19921;-81
2023/10/28 04:20:50;;;;;;;;;;;9.80;99.90;;;;;;5032926;28;19921;-82
2023/10/28 04:23:16;;;;;;;;;;;9.80;99.90;;;;;;5021970;28;19938;-80
2023/10/28 04:25:42;;;;;;;;;;;9.80;99.90;;;;;;5041828;28;19964;-80
2023/10/28 04:28:07;;;;;;;;;;;9.80;99.90;;;;;;5019036;28;19921;-79
2023/10/28 04:30:33;;;;;;;;;;;9.90;99.90;;;;;;5053472;28;19929;-80
2023/10/28 04:32:58;;;;;;;;;;;9.90;99.90;;;;;;5039595;28;19924;-79
2023/10/28 04:35:24;;;;;;;;;;;9.90;99.90;;;;;;5011101;28;19920;-80
2023/10/28 04:37:49;;;;;;;;;;;9.90;99.90;;;;;;5041720;28;19921;-79
2023/10/28 04:40:15;;;;;;;;;;;9.90;99.90;;;;;;5037778;28;20432;-80
2023/10/28 04:42:40;;;;;;;;;;;9.90;99.90;;;;;;5032012;28;20157;-80
2023/10/28 04:45:06;;;;;;;;;;;9.90;99.90;;;;;;5042627;28;19931;-79
2023/10/28 04:47:32;;;;;;;;;;;9.90;99.90;;;;;;5031337;28;19929;-80
2023/10/28 04:49:58;;;;;;;;;;;10.00;99.90;;;;;;5015679;28;20016;-80
2023/10/28 04:52:23;;;;;;;;;;;10.00;99.90;;;;;;5028147;28;20320;-80
2023/10/28 04:54:49;;;;;;;;;;;9.90;99.90;;;;;;5037010;28;19921;-80
2023/10/28 04:57:15;;;;;;;;;;;10.00;99.90;;;;;;5044226;28;20385;-80
2023/10/28 04:59:40;;;;;;;;;;;10.00;99.90;;;;;;5035512;28;20050;-80
2023/10/28 05:02:06;;;;;;;;;;;9.90;99.90;;;;;;5030744;28;19979;-80
2023/10/28 05:04:31;;;;;;;;;;;10.00;99.90;;;;;;5037598;28;19924;-80
2023/10/28 05:06:57;;;;;;;;;;;9.90;99.90;;;;;;5044503;28;20066;-80
2023/10/28 05:09:23;;;;;;;;;;;9.90;99.90;;;;;;5021301;28;20270;-80
2023/10/28 05:11:51;;;;;;;;;;;9.90;99.90;;;;;;5023478;28;19966;-81
2023/10/28 05:14:16;;;;;;;;;;;9.90;99.90;;;;;;5040453;28;20071;-80
2023/10/28 05:16:42;;;;;;;;;;;9.90;99.90;;;;;;5039922;28;19968;-81
2023/10/28 05:19:08;;;;;;;;;;;9.90;99.90;;;;;;5031473;28;20307;-80
2023/10/28 05:21:34;;;;;;;;;;;9.90;99.90;;;;;;5037524;28;19966;-80
2023/10/28 05:23:59;;;;;;;;;;;9.90;99.90;;;;;;5039000;28;19929;-80
2023/10/28 05:26:25;;;;;;;;;;;9.90;99.90;;;;;;5032227;28;19957;-80
2023/10/28 05:28:53;;;;;;;;;;;10.00;99.90;;;;;;5029663;28;19921;-80
2023/10/28 05:31:19;;;;;;;;;;;9.90;99.90;;;;;;5042266;28;19998;-80
2023/10/28 05:33:45;;;;;;;;;;;9.90;99.90;;;;;;5041313;28;19920;-80
2023/10/28 05:36:10;;;;;;;;;;;9.90;99.90;;;;;;5011199;28;19936;-80
2023/10/28 05:38:36;;;;;;;;;;;9.90;99.90;;;;;;5029404;28;19921;-80
2023/10/28 05:41:02;;;;;;;;;;;9.90;99.90;;;;;;5038777;28;19925;-81
2023/10/28 05:43:27;;;;;;;;;;;9.80;99.90;;;;;;5025111;28;19921;-80
2023/10/28 05:45:53;;;;;;;;;;;9.90;99.90;;;;;;5045598;28;19968;-80
2023/10/28 05:48:18;;;;;;;;;;;9.80;99.90;;;;;;5034045;28;20136;-81
2023/10/28 05:50:44;;;;;;;;;;;9.80;99.90;;;;;;5036390;28;19956;-81
2023/10/28 05:53:09;;;;;;;;;;;9.90;99.90;;;;;;5036181;28;19920;-80
2023/10/28 05:55:35;;;;;;;;;;;9.90;99.90;;;;;;5049388;28;20395;-80
2023/10/28 05:58:01;;;;;;;;;;;9.90;99.90;;;;;;5042836;28;20012;-81
2023/10/28 06:00:28;;;;;;;;;;;9.90;99.90;;;;;;5019174;28;19998;-80
2023/10/28 06:02:54;;;;;;;;;;;9.80;99.90;;;;;;5010419;28;19921;-82
2023/10/28 06:05:19;;;;;;;;;;;9.80;99.90;;;;;;5030104;28;19927;-81
2023/10/28 06:07:47;;;;;;;;;;;9.80;99.90;;;;;;5037288;28;19921;-81
2023/10/28 06:10:16;;;;;;;;;;;9.80;99.90;;;;;;5040024;28;19929;-81
2023/10/28 06:12:41;;;;;;;;;;;9.70;99.90;;;;;;5037906;28;20387;-81
2023/10/28 06:15:07;;;;;;;;;;;9.70;99.90;;;;;;5054454;28;19929;-81
2023/10/28 06:17:35;;;;;;;;;;;9.60;99.90;;;;;;5048255;28;19925;-81
2023/10/28 06:20:01;;;;;;;;;;;9.60;99.90;;;;;;5020212;28;20296;-81
2023/10/28 06:22:26;;;;;;;;;;;9.60;99.90;;;;;;5034672;28;20012;-81
2023/10/28 06:24:53;;;;;;;;;;;9.60;99.90;;;;;;5046634;28;19925;-82
2023/10/28 06:27:19;;;;;;;;;;;9.60;99.90;;;;;;5041006;28;19935;-81
2023/10/28 06:29:44;;;;;;;;;;;9.60;99.90;;;;;;5046621;28;19976;-81
2023/10/28 06:32:10;;;;;;;;;;;9.60;99.90;;;;;;5050077;28;19921;-80
2023/10/28 06:34:35;;;;;;;;;;;9.60;99.90;;;;;;5040648;28;19928;-81
2023/10/28 06:37:01;;;;;;;;;;;9.60;99.90;;;;;;5030212;28;19967;-81
2023/10/28 06:39:26;;;;;;;;;;;9.50;99.90;;;;;;5048780;28;20019;-81
2023/10/28 06:41:52;;;;;;;;;;;9.60;99.90;;;;;;5038695;28;19922;-81
2023/10/28 06:44:19;;;;;;;;;;;9.60;99.90;;;;;;5028619;28;19926;-80
2023/10/28 06:46:45;;;;;;;;;;;9.60;99.90;;;;;;5027764;28;19948;-80
2023/10/28 06:49:11;;;;;;;;;;;9.60;99.90;;;;;;5033023;28;19944;-79
2023/10/28 06:51:37;;;;;;;;;;;9.60;99.90;;;;;;5028936;28;19927;-80
2023/10/28 06:54:03;;;;;;;;;;;9.70;99.90;;;;;;5038613;28;19921;-81
2023/10/28 06:56:29;;;;;;;;;;;9.70;99.90;;;;;;5031675;28;19925;-82
2023/10/28 06:58:54;;;;;;;;;;;9.70;99.90;;;;;;5029814;28;19921;-82
2023/10/28 07:01:20;;;;;;;;;;;9.70;99.90;;;;;;5032399;28;19921;-82
2023/10/28 07:03:46;;;;;;;;;;;9.80;99.90;;;;;;5027602;28;20332;-82
2023/10/28 07:06:14;;;;;;;;;;;9.80;99.90;;;;;;5038951;28;19925;-82
2023/10/28 07:08:40;;;;;;;;;;;9.80;99.90;;;;;;5008323;28;19932;-81
2023/10/28 07:11:06;;;;;;;;;;;9.90;99.90;;;;;;5037178;28;19956;-81
2023/10/28 07:13:32;;;;;;;;;;;9.90;99.90;;;;;;5027349;28;19925;-81
2023/10/28 07:16:01;;;;;;;;;;;9.90;99.90;;;;;;5025283;28;19921;-81
2023/10/28 07:18:27;;;;;;;;;;;9.90;99.90;;;;;;5028294;28;19921;-84
2023/10/28 07:20:53;;;;;;;;;;;10.00;99.90;;;;;;5027939;28;19929;-81
2023/10/28 07:23:20;;;;;;;;;;;10.00;99.90;;;;;;5030413;28;19920;-82
2023/10/28 07:25:45;;;;;;;;;;;10.00;99.90;;;;;;5025619;28;19921;-81
2023/10/28 07:28:13;;;;;;;;;;;10.00;99.90;;;;;;5022861;28;19936;-81
2023/10/28 07:30:45;;;;;;;;;;;10.10;99.90;;;;;;5024549;28;19921;-80
2023/10/28 07:33:11;;;;;;;;;;;10.10;99.90;;;;;;5024742;28;19921;-81
2023/10/28 07:35:36;;;;;;;;;;;10.00;99.90;;;;;;5022447;28;19979;-81
2023/10/28 07:38:02;;;;;;;;;;;10.10;99.90;;;;;;5022192;28;20448;-81
2023/10/28 07:40:27;;;;;;;;;;;10.10;99.90;;;;;;5024282;28;19927;-83
2023/10/28 07:42:52;;;;;;;;;;;10.20;99.90;;;;;;5045032;28;19972;-80
2023/10/28 07:45:18;;;;;;;;;;;10.20;99.90;;;;;;5040617;28;19929;-82
2023/10/28 07:47:43;;;;;;;;;;;10.20;99.90;;;;;;5040771;28;19928;-84
2023/10/28 07:50:09;;;;;;;;;;;10.30;99.90;;;;;;5045049;28;19948;-83
2023/10/28 07:52:35;;;;;;;;;;;10.30;99.90;;;;;;5040159;28;19943;-83
2023/10/28 07:55:04;;;;;;;;;;;10.30;99.90;;;;;;5047665;28;19944;-82
2023/10/28 07:57:32;;;;;;;;;;;10.40;99.90;;;;;;5056555;28;19946;-82
2023/10/28 07:59:58;;;;;;;;;;;10.40;99.90;;;;;;5048146;28;19920;-82
2023/10/28 08:02:23;;;;;;;;;;;10.50;99.90;;;;;;5046835;28;19968;-83
2023/10/28 08:04:52;;;;;;;;;;;10.50;99.90;;;;;;5047039;28;19960;-83
2023/10/28 08:07:18;;;;;;;;;;;10.50;99.90;;;;;;5031726;28;19979;-83
2023/10/28 08:09:45;;;;;;;;;;;10.60;99.90;;;;;;5031043;28;19921;-83
2023/10/28 08:12:11;;;;;;;;;;;10.60;99.90;;;;;;5029480;28;20020;-83
2023/10/28 08:14:36;;;;;;;;;;;10.60;99.90;;;;;;5031054;28;20023;-83
2023/10/28 08:17:02;;;;;;;;;;;10.70;99.90;;;;;;5048462;28;19925;-83
2023/10/28 08:19:29;;;;;;;;;;;10.70;99.90;;;;;;5041983;28;20281;-83
2023/10/28 08:21:55;;;;;;;;;;;10.80;99.90;;;;;;5044006;28;19935;-83
2023/10/28 08:26:11;;;;;;;9.65;4.45;;;10.90;99.90;;;;;;5102034;27;20463;-45
2023/10/28 08:28:37;;;;;;;9.45;3.88;;;11.00;99.90;;;;;;5100642;28;20119;-45
2023/10/28 08:31:07;;;;;;;9.02;4.45;;;11.10;99.90;;;;;;5092725;28;20028;-45
2023/10/28 08:33:36;;;;;;;6.40;4.50;;;11.10;99.90;;;;;;5098867;28;20115;-45
2023/10/28 08:36:02;;;;;;;8.77;4.07;;;11.10;99.90;;;;;;5090800;28;20447;-47
2023/10/28 08:38:28;;;;;;;6.47;4.50;;;11.20;99.90;;;;;;5089328;28;20048;-47
2023/10/28 08:40:54;;;;;;;8.90;4.78;;;11.20;99.90;;;;;;5089302;28;20044;-48
2023/10/28 08:43:20;;;;;;;6.28;3.92;;;11.20;99.90;;;;;;5091432;28;20105;-49
2023/10/28 08:45:48;;;;;;;6.80;4.13;;;11.20;99.90;;;;;;5096092;28;20067;-48
2023/10/28 08:48:14;;;;;;;7.35;4.25;;;11.20;99.90;;;;;;5092304;28;20036;-46
2023/10/28 08:50:44;;;;;;;6.35;4.13;;;11.20;99.90;;;;;;5093381;28;20075;-47
2023/10/28 08:53:15;;;;;;;8.00;4.20;;;11.20;99.90;;;;;;5098115;28;20044;-46
2023/10/28 08:55:43;;;;;;;8.38;4.38;;;11.30;99.90;;;;;;5089507;28;20058;-45
2023/10/28 08:58:08;;;;;;;9.43;3.88;;;11.30;99.90;;;;;;5092726;28;20068;-48
2023/10/28 09:00:35;;;;;;;7.25;3.70;;;11.30;99.90;;;;;;5090266;28;20066;-47
2023/10/28 09:03:04;;;;;;;7.70;3.80;;;11.40;99.90;;;;;;5089560;28;20464;-45
2023/10/28 09:05:30;;;;;;;8.73;3.50;;;11.40;99.90;;;;;;5095397;28;20523;-45
2023/10/28 09:07:56;;;;;;;8.02;3.60;;;11.40;99.90;;;;;;5092480;28;20493;-46
2023/10/28 09:10:22;;;;;;;7.78;3.80;;;11.50;99.90;;;;;;5090345;28;20100;-45
2023/10/28 09:12:49;;;;;;;8.88;3.88;;;11.50;99.90;;;;;;5090953;28;21918;-46
2023/10/28 09:15:15;;;;;;;5.25;3.42;;;;;;;;;;5097391;28;20035;-48
2023/10/28 09:17:41;;;;;;;6.03;3.80;;;11.50;99.90;;;;;;5089736;28;20059;-47
2023/10/28 09:20:10;;;;;;;6.60;3.47;;;11.50;99.90;;;;;;5089592;28;20127;-46
2023/10/28 09:22:42;;;;;;;9.98;4.07;;;11.60;99.90;;;;;;5098351;28;20063;-45
2023/10/28 09:25:11;;;;;;;6.90;3.72;;;11.60;99.90;;;;;;5098186;28;20064;-45
2023/10/28 09:27:37;;;;;;;6.78;3.50;;;11.60;99.90;;;;;;5087957;28;20041;-54
2023/10/28 09:30:07;;;;;;;7.20;4.15;;;11.60;99.90;;;;;;5094618;28;20119;-44
2023/10/28 09:32:34;;;;;;;5.53;3.45;;;11.70;99.90;;;;;;5088230;28;20036;-46
2023/10/28 09:35:07;;;;;;;7.05;3.78;;;11.60;99.90;;;;;;5092957;28;20047;-46
2023/10/28 09:37:35;;;;;;;6.32;3.53;;;11.70;99.90;;;;;;5094810;28;20051;-46
2023/10/28 09:40:05;;;;;;;9.77;3.80;;;11.70;99.90;;;;;;5080443;28;20093;-45
2023/10/28 09:42:36;;;;;;;5.35;3.22;;;11.80;99.90;;;;;;5074613;28;20040;-48
2023/10/28 09:45:06;;;;;;;6.32;3.78;;;11.80;99.90;;;;;;5074889;28;20385;-46
2023/10/28 09:47:50;;;;;;;6.55;3.97;;;11.90;99.90;;;;;;5074544;28;20041;-49
2023/10/28 09:50:16;;;;;;;6.50;3.20;;;11.90;99.90;;;;;;5074433;28;20093;-46
2023/10/28 09:52:43;;;;;;;6.75;3.17;;;12.00;99.90;;;;;;5074763;28;20063;-46
2023/10/28 09:55:13;;;;;;;6.33;3.17;;;12.00;99.90;;;;;;5075899;28;20056;-47
2023/10/28 09:57:40;;;;;;;5.70;3.20;;;12.00;99.90;;;;;;5073806;28;20055;-45
2023/10/28 10:00:19;;;;;;;5.68;3.15;;;12.00;99.90;;;;;;5074362;28;20129;-44
2023/10/28 10:03:03;;;;;;;5.82;3.40;;;;;;;;;;5074352;28;20508;-46
2023/10/28 10:05:37;;;;;;;7.25;3.15;;;12.10;99.90;;;;;;5074005;28;20513;-47
2023/10/28 10:08:02;;;;;;;7.70;3.58;;;12.10;99.90;;;;;;5074316;28;20598;-48
2023/10/28 10:10:28;;;;;;;5.30;3.20;;;12.10;99.90;;;;;;5091756;28;20079;-49
2023/10/28 10:13:03;;;;;;;6.43;3.20;;;12.20;99.90;;;;;;5073944;28;20037;-48
2023/10/28 10:15:33;;;;;;;4.90;2.90;;;12.30;99.90;;;;;;5072758;28;20052;-46
2023/10/28 10:18:12;;;;;;;4.88;3.17;;;;;;;;;;5072818;28;20048;-45
2023/10/28 10:20:45;;;;;;;4.68;3.00;;;12.40;99.90;;;;;;5073647;28;20040;-45
2023/10/28 10:23:11;;;;;;;4.85;3.15;;;12.50;99.90;;;;;;5074700;28;20051;-48
2023/10/28 10:25:41;;;;;;;7.75;3.50;;;12.50;99.90;;;;;;5077785;28;20454;-49
2023/10/28 10:28:11;;;;;;;8.88;3.30;;;12.60;99.90;;;;;;5074507;28;20068;-46
2023/10/28 10:30:37;;;;;;;6.97;3.30;;;12.50;99.90;;;;;;5080402;28;20051;-49
2023/10/28 10:33:03;;;;;;;5.57;2.80;;;12.50;99.90;;;;;;5073741;28;20045;-47
2023/10/28 10:35:31;;;;;;;6.65;3.10;;;12.50;99.90;;;;;;5080574;28;20056;-45
2023/10/28 10:38:03;;;;;;;;;;;12.50;99.90;;;;;;5074331;28;20037;-48
2023/10/28 10:40:33;;;;;;;5.88;3.08;;;12.50;99.90;;;;;;5072333;28;19974;-46
2023/10/28 10:43:06;;;;;;;5.50;3.20;;;12.40;99.90;;;;;;5077286;28;20052;-45
2023/10/28 10:45:34;;;;;;;6.28;3.35;;;12.30;99.90;;;;;;5076427;28;20123;-44
2023/10/28 10:48:03;;;;;;;7.93;3.55;;;12.40;99.90;;;;;;5087826;28;20066;-45
2023/10/28 10:50:31;;;;;;;9.43;3.53;;;12.40;99.90;;;;;;5081304;28;20044;-46
2023/10/28 10:52:57;;;;;;;7.40;3.55;;;12.40;99.90;;;;;;5087206;28;20048;-46
2023/10/28 10:55:24;;;;;;;7.07;3.33;;;12.50;99.90;;;;;;5073900;28;20459;-47
2023/10/28 10:57:52;;;;;;;6.88;3.63;;;12.50;99.90;;;;;;5073899;28;20058;-47
2023/10/28 11:00:18;;;;;;;5.68;3.40;;;12.60;99.90;;;;;;5078989;28;20036;-46
2023/10/28 11:02:45;;;;;;;6.13;3.05;;;12.80;99.90;;;;;;5073839;28;20036;-45
2023/10/28 11:05:12;;;;;;;4.50;3.10;;;12.90;99.90;;;;;;5059295;28;20048;-45
2023/10/28 11:07:38;;;;;;;5.63;3.60;;;12.90;99.90;;;;;;5079426;28;20036;-47
2023/10/28 11:10:08;;;;;;;6.72;3.40;;;12.90;99.90;;;;;;5078375;28;20104;-46
2023/10/28 11:12:34;;;;;;;6.47;2.92;;;13.00;99.90;;;;;;5082175;28;20462;-47
2023/10/28 11:15:00;;;;;;;5.45;3.17;;;12.90;99.90;;;;;;5072089;28;20044;-46
2023/10/28 11:17:26;;;;;;;7.18;3.25;;;13.00;99.90;;;;;;5080985;28;20114;-45
2023/10/28 11:19:52;;;;;;;5.90;2.90;;;12.90;99.90;;;;;;5077921;28;20397;-45
2023/10/28 11:22:18;;;;;;;5.40;2.65;;;13.10;99.90;;;;;;5073469;28;20044;-47
2023/10/28 11:24:44;;;;;;;7.47;3.00;;;13.00;99.90;;;;;;5080880;28;20052;-46
2023/10/28 11:27:18;;;;;;;5.05;2.72;;;13.10;99.90;;;;;;5081570;28;20097;-49
2023/10/28 11:29:44;;;;;;;4.95;2.58;;;13.10;99.90;;;;;;5076097;28;20056;-49
2023/10/28 11:32:10;;;;;;;4.95;2.90;;;13.20;99.90;;;;;;5081008;28;20040;-46
2023/10/28 11:34:39;;;;;;;4.18;2.80;;;13.20;99.90;;;;;;5074831;28;20043;-48
2023/10/28 11:37:10;;;;;;;5.25;3.08;;;13.30;99.90;;;;;;5073160;28;20047;-45
2023/10/28 11:39:41;;;;;;;6.63;2.83;;;13.40;99.90;;;;;;5075811;28;20044;-46
2023/10/28 11:42:11;;;;;;;8.02;3.13;;;13.30;99.90;;;;;;5087464;28;20047;-46
2023/10/28 11:44:37;;;;;;;5.57;3.17;;;13.50;99.90;;;;;;5083459;28;20078;-46
2023/10/28 11:47:03;;;;;;;6.72;3.10;;;13.50;99.90;;;;;;5072231;28;20075;-46
2023/10/28 11:49:29;;;;;;;5.82;2.85;;;13.60;99.90;;;;;;5081527;28;20100;-45
2023/10/28 11:51:55;;;;;;;3.83;2.70;;;13.80;99.90;;;;;;5073485;28;20115;-47
2023/10/28 11:54:20;;;;;;;6.65;2.95;;;13.90;99.90;;;;;;5079823;28;20053;-46
2023/10/28 11:56:46;;;;;;;4.68;2.47;;;13.90;99.90;;;;;;5093305;28;20139;-46
2023/10/28 11:59:11;;;;;;;7.22;2.72;;;13.90;99.90;;;;;;5092889;28;20032;-48
2023/10/28 12:01:37;;;;;;;4.78;2.40;;;13.90;99.90;;;;;;5091151;28;20101;-46
2023/10/28 12:04:04;;;;;;;5.15;2.63;;;13.80;99.90;;;;;;5072793;28;20115;-46
2023/10/28 12:06:33;;;;;;;6.38;2.75;;;13.80;99.90;;;;;;5071362;28;20070;-46
2023/10/28 12:08:59;;;;;;;5.68;2.65;;;13.80;99.90;;;;;;5072494;28;20045;-49
2023/10/28 12:11:27;;;;;;;5.47;2.50;;;13.70;99.90;;;;;;5071166;28;20120;-45
2023/10/28 12:13:53;;;;;;;4.13;2.17;;;13.80;99.90;;;;;;5071848;28;20040;-45
2023/10/28 12:16:18;;;;;;;5.53;2.50;;;13.80;99.90;;;;;;5071469;28;20123;-45
2023/10/28 12:18:44;;;;;;;5.55;2.40;;;13.90;99.90;;;;;;5071400;28;20040;-46
2023/10/28 12:21:10;;;;;;;7.00;2.30;;;13.80;99.90;;;;;;5071348;28;20041;-46
2023/10/28 12:23:36;;;;;;;5.22;2.53;;;13.80;99.90;;;;;;5071171;28;20046;-46
2023/10/28 12:26:03;;;;;;;4.57;2.28;;;13.90;99.90;;;;;;5071278;28;20095;-45
2023/10/28 12:28:29;;;;;;;5.70;2.45;;;13.80;99.90;;;;;;5071452;28;20076;-47
2023/10/28 12:30:55;;;;;;;5.57;2.55;;;13.90;99.90;;;;;;5071008;28;20559;-48
2023/10/28 12:33:20;;;;;;;4.40;2.30;;;14.00;99.90;;;;;;5071346;28;20040;-48
2023/10/28 12:35:46;;;;;;;7.72;2.75;;;14.10;99.90;;;;;;5071251;28;20049;-46
2023/10/28 12:38:11;;;;;;;5.50;2.53;;;14.20;99.90;;;;;;5071546;28;20048;-48
2023/10/28 12:40:37;;;;;;;4.55;2.45;;;14.20;99.90;;;;;;5070791;28;20133;-45
2023/10/28 12:43:03;;;;;;;4.70;2.25;;;14.20;99.90;;;;;;5085659;28;20040;-45
2023/10/28 12:45:29;;;;;;;4.40;2.53;;;14.30;99.90;;;;;;5075621;28;20051;-46
2023/10/28 12:47:56;;;;;;;4.47;2.28;;;14.20;99.90;;;;;;5071581;28;20029;-46
2023/10/28 12:50:22;;;;;;;7.53;2.30;;;14.20;99.90;;;;;;5088426;28;20119;-46
2023/10/28 12:52:48;;;;;;;3.90;2.17;;;14.30;99.90;;;;;;5091773;28;20115;-46
2023/10/28 12:55:13;;;;;;;3.80;2.42;;;14.10;99.90;;;;;;5091377;28;20044;-46
2023/10/28 12:57:39;;;;;;;7.35;2.35;;;14.20;99.90;;;;;;5090777;28;20047;-46
2023/10/28 13:00:10;;;;;;;4.50;2.30;;;14.30;99.90;;;;;;5079974;28;20060;-46
2023/10/28 13:02:38;;;;;;;6.93;2.47;;;14.30;99.90;;;;;;5071626;28;20052;-49
2023/10/28 13:05:04;;;;;;;6.43;2.50;;;14.30;99.90;;;;;;5071545;28;20063;-45
2023/10/28 13:07:30;;;;;;;4.10;1.92;;;14.30;99.90;;;;;;5071197;28;20477;-47
2023/10/28 13:09:55;;;;;;;6.18;2.50;;;14.30;99.90;;;;;;5071208;28;20045;-46
2023/10/28 13:12:21;;;;;;;5.43;2.38;;;14.20;99.90;;;;;;5075449;28;20120;-48
2023/10/28 13:14:50;;;;;;;6.65;2.35;;;14.20;99.90;;;;;;5095626;28;20378;-46
2023/10/28 13:17:15;;;;;;;4.90;2.28;;;14.40;99.90;;;;;;5090901;28;20048;-48
2023/10/28 13:19:41;;;;;;;5.13;2.10;;;14.30;99.90;;;;;;5075005;28;20070;-46
2023/10/28 13:22:06;;;;;;;4.30;2.50;;;14.20;99.90;;;;;;5075111;28;20041;-45
2023/10/28 13:24:32;;;;;;;5.22;2.20;;;14.10;99.90;;;;;;5074533;28;20431;-48
2023/10/28 13:26:58;;;;;;;4.90;2.00;;;14.10;99.90;;;;;;5075881;28;20055;-49
2023/10/28 13:29:24;;;;;;;5.10;2.22;;;14.00;99.90;;;;;;5095006;28;20036;-48
2023/10/28 13:31:49;;;;;;;5.10;2.00;;;14.10;99.90;;;;;;5095140;28;20052;-47
2023/10/28 13:34:16;;;;;;;3.38;1.90;;;14.10;99.90;;;;;;5092960;28;20491;-46
2023/10/28 13:36:42;;;;;;;5.45;1.85;;;14.20;99.90;;;;;;5094085;28;20032;-46
2023/10/28 13:39:08;;;;;;;4.78;2.00;;;14.30;99.90;;;;;;5094826;28;20093;-46
2023/10/28 13:41:34;;;;;;;3.80;2.22;;;14.40;99.90;;;;;;5094625;28;20044;-50
2023/10/28 13:44:02;;;;;;;5.90;2.20;;;14.70;99.90;;;;;;5091118;28;20115;-46